ASS weather

Arathusa Safari Lodge Airport
Arathusa, Limpopo, South Africa

Public forecast

Using degrees Celsius for public forecast. Weather courtesy of forecast.io.

METAR (pilot weather report)

Closest report is Hoedspruit Air Force Base Airport, 34.3 nm (63.6 km) NW. Retrieved 2019/09/19 03:00 UTC (6 minutes ago):

FAHS 190300Z AUTO 18011KT //// // ////// 18/15 Q1024

TAF (pilot weather forecast)

Forecast is more than 12 hours old.

Closest forecast is Hoedspruit Air Force Base Airport, 34.3 nm (63.6 km) NW. Retrieved 2017/05/23 04:01 UTC (2 years ago):

TAF FAHS 230300Z 2304/2315 VRB02KT CAVOK TX29/2312ZTN12/2304Z